Time;durP1;ratioP1;P1;durP2;ratioP2;P2;SDS_P1;SDS_P2;PMS_P1;PMS_P2;Temp;Humidity;BMP_temperature;BMP_pressure;BME280_temperature;BME280_humidity;BME280_pressure;Samples;Min_cycle;Max_cycle;Signal;HPM_P1;HPM_P2
2021/03/10 00:00:10;;;;;;;22.67;14.48;;;0.90;83.60;;;;;;5019652;28;20026;-84
2021/03/10 00:02:36;;;;;;;22.27;14.77;;;0.80;83.70;;;;;;5023041;28;20026;-84
2021/03/10 00:05:04;;;;;;;21.33;13.68;;;1.50;84.40;;;;;;5020742;28;20034;-84
2021/03/10 00:07:30;;;;;;;22.95;13.95;;;0.70;85.40;;;;;;5020434;28;20022;-84
2021/03/10 00:09:56;;;;;;;20.60;13.25;;;0.60;85.20;;;;;;5020987;28;20037;-84
2021/03/10 00:12:22;;;;;;;20.98;13.15;;;0.60;85.90;;;;;;5019554;28;20017;-83
2021/03/10 00:14:47;;;;;;;21.90;12.77;;;0.50;86.30;;;;;;5019191;28;20137;-85
2021/03/10 00:17:13;;;;;;;20.33;12.80;;;0.40;86.20;;;;;;5018480;28;20030;-85
2021/03/10 00:19:40;;;;;;;19.08;12.38;;;0.30;86.40;;;;;;5018398;28;20022;-84
2021/03/10 00:22:06;;;;;;;19.75;12.80;;;0.40;87.00;;;;;;5017866;28;20088;-85
2021/03/10 00:24:31;;;;;;;21.33;12.25;;;0.30;86.90;;;;;;5018403;28;20473;-84
2021/03/10 00:26:57;;;;;;;20.73;11.90;;;0.30;87.00;;;;;;5018592;28;20072;-85
2021/03/10 00:29:23;;;;;;;18.98;12.40;;;0.30;87.90;;;;;;5016577;28;20025;-85
2021/03/10 00:31:49;;;;;;;19.25;12.95;;;0.30;88.00;;;;;;5016233;28;20026;-84
2021/03/10 00:34:14;;;;;;;21.92;12.32;;;0.40;87.30;;;;;;5017064;28;20045;-85
2021/03/10 00:36:40;;;;;;;22.25;12.57;;;0.40;87.30;;;;;;5016931;28;20026;-84
2021/03/10 00:39:05;;;;;;;20.02;12.55;;;0.20;88.40;;;;;;5017091;28;20509;-85
2021/03/10 00:41:31;;;;;;;21.42;12.90;;;0.20;87.70;;;;;;5017652;28;20022;-85
2021/03/10 00:43:57;;;;;;;24.10;13.48;;;0.30;85.10;;;;;;5017237;28;20487;-83
2021/03/10 00:46:22;;;;;;;22.45;14.25;;;0.30;86.00;;;;;;5017086;28;20026;-86
2021/03/10 00:48:48;;;;;;;23.00;13.63;;;0.30;86.00;;;;;;5016848;28;20441;-85
2021/03/10 00:51:14;;;;;;;24.52;14.63;;;0.30;86.40;;;;;;5017106;28;20108;-84
2021/03/10 00:53:39;;;;;;;24.05;14.15;;;0.40;86.20;;;;;;5016701;28;20053;-83
2021/03/10 00:56:05;;;;;;;22.98;14.35;;;0.30;85.70;;;;;;5017106;28;20077;-84
2021/03/10 00:58:31;;;;;;;26.88;14.75;;;0.40;86.00;;;;;;5017057;28;20033;-84
2021/03/10 01:00:56;;;;;;;23.08;14.30;;;0.40;85.80;;;;;;5016925;28;20449;-83
2021/03/10 01:03:22;;;;;;;23.48;13.88;;;0.50;86.80;;;;;;5016934;28;20117;-84
2021/03/10 01:05:48;;;;;;;23.45;13.20;;;0.40;87.20;;;;;;5016709;28;20030;-84
2021/03/10 01:08:13;;;;;;;22.48;13.27;;;1.50;88.20;;;;;;5017203;28;20057;-84
2021/03/10 01:10:40;;;;;;;20.75;13.45;;;0.30;86.60;;;;;;5016715;28;20030;-84
2021/03/10 01:13:06;;;;;;;21.50;14.50;;;0.50;87.40;;;;;;5016682;28;20026;-85
2021/03/10 01:15:31;;;;;;;23.17;14.13;;;0.30;87.30;;;;;;5000176;28;20049;-85
2021/03/10 01:17:57;;;;;;;21.50;13.65;;;1.20;86.70;;;;;;5017121;28;20054;-84
2021/03/10 01:20:24;;;;;;;21.42;14.23;;;0.40;86.00;;;;;;5016600;28;20097;-84
2021/03/10 01:22:50;;;;;;;22.23;12.82;;;0.50;85.80;;;;;;5016712;28;20036;-85
2021/03/10 01:25:16;;;;;;;20.08;12.80;;;0.50;85.50;;;;;;5016890;28;20026;-84
2021/03/10 01:27:42;;;;;;;19.95;13.00;;;1.10;86.10;;;;;;5016956;28;20092;-83
2021/03/10 01:30:10;;;;;;;20.05;12.95;;;0.90;86.80;;;;;;5016292;28;20045;-85
2021/03/10 01:32:36;;;;;;;21.33;12.90;;;0.50;86.60;;;;;;5016208;28;20121;-85
2021/03/10 01:35:04;;;;;;;19.63;12.75;;;0.50;87.40;;;;;;5016422;28;20033;-84
2021/03/10 01:37:29;;;;;;;20.38;13.40;;;0.40;87.50;;;;;;5015978;28;20057;-85
2021/03/10 01:39:55;;;;;;;23.58;14.60;;;0.40;87.60;;;;;;5000921;28;20038;-84
2021/03/10 01:42:24;;;;;;;22.42;13.70;;;0.40;87.30;;;;;;5018117;28;20033;-83
2021/03/10 01:44:50;;;;;;;20.83;13.77;;;0.60;87.30;;;;;;5016602;28;20034;-85
2021/03/10 01:47:17;;;;;;;22.02;13.85;;;0.30;87.00;;;;;;5016363;28;20021;-84
2021/03/10 01:49:43;;;;;;;22.60;13.55;;;0.30;88.20;;;;;;5016937;28;20034;-85
2021/03/10 01:52:10;;;;;;;21.85;12.27;;;0.90;89.20;;;;;;5000242;28;20034;-84
2021/03/10 01:54:36;;;;;;;21.42;13.23;;;0.30;88.50;;;;;;5016433;28;20050;-84
2021/03/10 01:57:02;;;;;;;20.73;13.23;;;0.30;88.30;;;;;;5017684;28;20108;-84
2021/03/10 01:59:28;;;;;;;20.67;12.38;;;0.20;88.40;;;;;;5017146;28;20033;-84
2021/03/10 02:01:54;;;;;;;21.98;13.00;;;0.20;89.20;;;;;;5016296;28;20161;-83
2021/03/10 02:04:21;;;;;;;21.80;12.15;;;0.10;88.80;;;;;;5016264;28;20127;-85
2021/03/10 02:06:58;;;;;;;20.05;13.35;;;0.10;88.90;;;;;;5018886;28;20477;-84
2021/03/10 02:09:42;;;;;;;18.77;12.30;;;0.20;89.00;;;;;;5019985;28;20069;-85
2021/03/10 02:12:36;;;;;;;20.80;12.27;;;0.20;87.20;;;;;;5020691;28;20038;-85
2021/03/10 02:15:38;;;;;;;22.80;12.75;;;0.20;86.70;;;;;;5019904;28;20037;-84
2021/03/10 02:18:09;;;;;;;21.15;13.32;;;0.10;88.20;;;;;;5019886;28;20057;-84
2021/03/10 02:20:41;;;;;;;19.63;12.07;;;0.10;89.10;;;;;;5019839;28;20067;-84
2021/03/10 02:23:11;;;;;;;21.23;12.70;;;0.10;90.30;;;;;;5020484;28;20388;-85
2021/03/10 02:25:55;;;;;;;22.83;13.20;;;0.10;90.70;;;;;;5019120;28;20021;-85
2021/03/10 02:28:21;;;;;;;20.48;13.38;;;0.10;90.60;;;;;;5019822;28;20104;-84
2021/03/10 02:30:51;;;;;;;20.77;13.35;;;0.10;90.50;;;;;;5019623;28;20021;-85
2021/03/10 02:33:21;;;;;;;26.27;13.52;;;0.20;90.30;;;;;;5019661;28;20101;-85
2021/03/10 02:35:50;;;;;;;21.98;13.52;;;0.10;90.20;;;;;;5019758;28;20038;-84
2021/03/10 02:38:20;;;;;;;21.13;13.75;;;0.10;90.10;;;;;;5019365;28;20200;-84
2021/03/10 02:40:48;;;;;;;21.35;13.50;;;0.30;90.20;;;;;;5019778;28;20026;-84
2021/03/10 02:43:14;;;;;;;20.98;12.82;;;0.10;90.40;;;;;;5019459;28;20018;-83
2021/03/10 02:45:41;;;;;;;23.30;13.38;;;0.00;90.40;;;;;;5019727;28;20038;-84
2021/03/10 02:48:07;;;;;;;24.20;13.80;;;0.20;90.70;;;;;;5019959;28;20026;-85
2021/03/10 02:50:34;;;;;;;21.95;13.68;;;-0.10;90.70;;;;;;5020091;28;20025;-84
2021/03/10 02:53:04;;;;;;;28.75;15.13;;;-0.10;91.00;;;;;;5018906;28;20030;-83
2021/03/10 02:55:34;;;;;;;20.90;14.07;;;0.00;91.00;;;;;;5018560;28;20129;-83
2021/03/10 02:57:59;;;;;;;24.98;14.48;;;-0.10;91.10;;;;;;5018776;28;20022;-84
2021/03/10 03:00:28;;;;;;;27.85;15.00;;;0.30;91.20;;;;;;5019321;28;20049;-83
2021/03/10 03:02:53;;;;;;;24.27;14.50;;;0.00;91.10;;;;;;5018756;28;20126;-83
2021/03/10 03:05:19;;;;;;;22.05;14.23;;;0.00;91.20;;;;;;5020530;28;20030;-83
2021/03/10 03:07:46;;;;;;;24.17;14.40;;;0.30;91.20;;;;;;5018660;28;20384;-84
2021/03/10 03:10:23;;;;;;;25.67;14.27;;;0.00;91.20;;;;;;5019376;28;20063;-84
2021/03/10 03:12:49;;;;;;;21.20;13.50;;;0.00;91.30;;;;;;5018567;28;20022;-85
2021/03/10 03:15:17;;;;;;;25.30;14.88;;;0.00;91.50;;;;;;5019105;28;20060;-84
2021/03/10 03:17:44;;;;;;;24.65;15.65;;;0.10;91.50;;;;;;5019417;28;20067;-83
2021/03/10 03:20:11;;;;;;;24.50;15.23;;;0.00;91.50;;;;;;5019140;28;20061;-83
2021/03/10 03:22:46;;;;;;;22.38;14.32;;;0.00;91.50;;;;;;5019120;28;20075;-84
2021/03/10 03:25:14;;;;;;;21.50;14.73;;;0.00;91.50;;;;;;5019187;28;20041;-85
2021/03/10 03:27:42;;;;;;;23.92;14.25;;;0.10;91.40;;;;;;5018446;28;20026;-84
2021/03/10 03:30:09;;;;;;;25.02;15.10;;;0.10;91.40;;;;;;5018642;28;20172;-84
2021/03/10 03:32:37;;;;;;;21.80;13.98;;;0.10;91.40;;;;;;5017902;28;20388;-84
2021/03/10 03:35:04;;;;;;;24.85;14.52;;;0.10;91.60;;;;;;5001738;28;20481;-84
2021/03/10 03:37:30;;;;;;;23.83;13.93;;;0.10;91.40;;;;;;5019767;28;20030;-85
2021/03/10 03:39:56;;;;;;;23.00;13.82;;;0.10;91.20;;;;;;5018298;28;20369;-85
2021/03/10 03:42:22;;;;;;;22.85;14.77;;;0.10;90.90;;;;;;5018227;28;20064;-84
2021/03/10 03:44:48;;;;;;;26.92;14.90;;;0.50;91.00;;;;;;5018054;28;20030;-85
2021/03/10 03:47:15;;;;;;;30.15;16.75;;;0.10;91.00;;;;;;5018325;28;20089;-84
2021/03/10 03:49:46;;;;;;;24.80;13.68;;;0.20;91.10;;;;;;5019129;28;20030;-84
2021/03/10 03:52:16;;;;;;;23.95;14.30;;;0.20;91.40;;;;;;5019287;28;20029;-84
2021/03/10 03:54:42;;;;;;;22.92;14.02;;;0.20;91.50;;;;;;5017959;28;20056;-83
2021/03/10 03:57:08;;;;;;;21.67;14.30;;;0.20;91.60;;;;;;5018788;28;20038;-83
2021/03/10 03:59:35;;;;;;;22.63;15.57;;;0.20;91.60;;;;;;5017680;28;20026;-84
2021/03/10 04:02:01;;;;;;;21.48;14.10;;;0.40;91.70;;;;;;5017838;28;20485;-83
2021/03/10 04:04:27;;;;;;;25.88;18.25;;;0.20;91.80;;;;;;5017876;28;20036;-84
2021/03/10 04:06:53;;;;;;;30.98;16.85;;;0.50;92.00;;;;;;5017532;28;20116;-84
2021/03/10 04:09:18;;;;;;;23.98;14.93;;;0.20;92.00;;;;;;5017352;28;20094;-84
2021/03/10 04:11:48;;;;;;;26.40;15.98;;;0.20;91.90;;;;;;5017645;28;20029;-84
2021/03/10 04:14:15;;;;;;;24.13;15.27;;;0.20;91.90;;;;;;5017596;28;20103;-84
2021/03/10 04:16:41;;;;;;;23.40;14.95;;;0.20;91.90;;;;;;5017732;28;20037;-85
2021/03/10 04:19:07;;;;;;;24.80;14.27;;;0.20;91.70;;;;;;5017601;28;20030;-84
2021/03/10 04:21:33;;;;;;;25.83;14.90;;;0.30;91.60;;;;;;5017170;28;20060;-83
2021/03/10 04:23:59;;;;;;;24.50;14.80;;;0.30;91.40;;;;;;5017679;28;20115;-85
2021/03/10 04:26:25;;;;;;;25.10;14.90;;;0.30;91.50;;;;;;5017204;28;20034;-85
2021/03/10 04:28:51;;;;;;;28.95;14.52;;;0.30;91.60;;;;;;5016018;28;20026;-84
2021/03/10 04:31:17;;;;;;;22.08;14.13;;;0.30;91.60;;;;;;5017316;28;20030;-84
2021/03/10 04:33:43;;;;;;;24.92;15.18;;;0.30;91.50;;;;;;5017949;28;20038;-84
2021/03/10 04:36:10;;;;;;;25.42;14.35;;;0.30;91.40;;;;;;5017116;28;20064;-86
2021/03/10 04:38:36;;;;;;;21.73;14.88;;;0.20;91.20;;;;;;5016974;28;20022;-84
2021/03/10 04:41:01;;;;;;;24.88;15.18;;;0.30;91.20;;;;;;5016888;28;20032;-83
2021/03/10 04:43:27;;;;;;;24.67;14.70;;;0.40;91.30;;;;;;5016902;28;20084;-85
2021/03/10 04:45:53;;;;;;;24.92;15.93;;;0.40;91.00;;;;;;5016648;28;20083;-83
2021/03/10 04:48:19;;;;;;;29.17;15.35;;;0.40;91.20;;;;;;5017221;28;20113;-83
2021/03/10 04:50:44;;;;;;;24.25;15.48;;;0.40;90.20;;;;;;5017162;28;20029;-85
2021/03/10 04:53:10;;;;;;;24.15;15.02;;;0.50;90.00;;;;;;5016843;28;20110;-85
2021/03/10 04:55:36;;;;;;;23.30;15.40;;;0.50;90.30;;;;;;5016847;28;20050;-85
2021/03/10 04:58:03;;;;;;;25.48;15.02;;;0.50;90.40;;;;;;5000204;28;20026;-85
2021/03/10 05:00:30;;;;;;;27.08;14.65;;;0.40;90.70;;;;;;5017952;28;20026;-86
2021/03/10 05:02:56;;;;;;;24.80;15.07;;;0.40;90.90;;;;;;5016571;28;20036;-86
2021/03/10 05:05:21;;;;;;;22.75;15.15;;;0.30;91.30;;;;;;5016813;28;20022;-85
2021/03/10 05:07:47;;;;;;;22.77;14.63;;;0.30;91.90;;;;;;5016655;28;20110;-84
2021/03/10 05:10:13;;;;;;;24.80;15.20;;;0.60;91.50;;;;;;5016737;28;20022;-85
2021/03/10 05:12:40;;;;;;;25.88;14.63;;;0.40;91.10;;;;;;5016379;28;20465;-84
2021/03/10 05:15:07;;;;;;;27.65;15.07;;;0.40;91.20;;;;;;5016494;28;20033;-83
2021/03/10 05:17:33;;;;;;;23.77;15.13;;;0.40;91.10;;;;;;5017079;28;20038;-84
2021/03/10 05:19:59;;;;;;;25.50;14.88;;;0.40;91.10;;;;;;5016759;28;20908;-84
2021/03/10 05:22:25;;;;;;;26.55;14.60;;;0.40;91.10;;;;;;5017008;28;20029;-84
2021/03/10 05:24:51;;;;;;;25.17;15.13;;;0.40;91.10;;;;;;5016474;28;20484;-84
2021/03/10 05:27:17;;;;;;;26.70;14.63;;;0.30;91.10;;;;;;5016512;28;20033;-83
2021/03/10 05:29:43;;;;;;;29.67;17.48;;;0.30;91.20;;;;;;5016228;28;20026;-85
2021/03/10 05:32:11;;;;;;;26.48;16.83;;;0.40;91.30;;;;;;5000353;28;20116;-84
2021/03/10 05:34:37;;;;;;;27.52;16.20;;;0.50;91.20;;;;;;5016426;28;20042;-84
2021/03/10 05:37:03;;;;;;;29.52;17.17;;;0.40;91.10;;;;;;5016258;28;20036;-84
2021/03/10 05:39:30;;;;;;;25.98;14.88;;;0.40;90.90;;;;;;5016838;28;20030;-84
2021/03/10 05:41:57;;;;;;;26.52;15.48;;;0.40;91.10;;;;;;4999866;28;20030;-84
2021/03/10 05:44:23;;;;;;;25.33;15.45;;;0.40;91.40;;;;;;5015871;28;20073;-83
2021/03/10 05:46:49;;;;;;;29.33;16.20;;;0.40;91.70;;;;;;5016543;28;20036;-84
2021/03/10 05:49:15;;;;;;;28.75;16.02;;;0.40;91.80;;;;;;5016125;28;20030;-83
2021/03/10 05:51:40;;;;;;;26.40;15.10;;;0.40;91.90;;;;;;5016214;28;20022;-84
2021/03/10 05:54:06;;;;;;;30.65;16.67;;;0.40;91.80;;;;;;5015565;28;20058;-84
2021/03/10 05:56:33;;;;;;;24.38;15.98;;;0.50;92.00;;;;;;5016047;28;20068;-84
2021/03/10 05:59:01;;;;;;;24.30;15.52;;;0.50;92.00;;;;;;5015364;28;20033;-82
2021/03/10 06:01:27;;;;;;;32.30;16.25;;;0.50;91.50;;;;;;5015765;28;20124;-80
2021/03/10 06:04:04;;;;;;;27.98;15.75;;;0.60;91.40;;;;;;5017440;28;20030;-79
2021/03/10 06:06:38;;;;;;;27.50;15.70;;;1.10;91.70;;;;;;4996137;28;20109;-83
2021/03/10 06:09:17;;;;;;;27.67;16.48;;;1.00;91.40;;;;;;5016842;28;20037;-81
2021/03/10 06:11:59;;;;;;;23.73;15.50;;;0.90;91.30;;;;;;5012746;28;20105;-81
2021/03/10 06:14:25;;;;;;;24.13;16.00;;;1.00;91.30;;;;;;5013035;28;20034;-81
2021/03/10 06:17:10;;;;;;;25.60;16.13;;;0.90;91.60;;;;;;5013444;28;20026;-79
2021/03/10 06:19:45;;;;;;;26.77;15.35;;;0.90;91.40;;;;;;5013809;28;20113;-83
2021/03/10 06:22:12;;;;;;;34.22;15.70;;;0.90;90.90;;;;;;5014167;28;20037;-83
2021/03/10 06:24:38;;;;;;;23.48;13.90;;;0.90;90.50;;;;;;5013864;28;20061;-81
2021/03/10 06:27:04;;;;;;;26.05;14.68;;;1.00;89.90;;;;;;5014538;28;20104;-83
2021/03/10 06:29:30;;;;;;;23.98;14.10;;;1.00;90.00;;;;;;5013193;28;20121;-80
2021/03/10 06:32:09;;;;;;;24.52;16.35;;;1.00;89.60;;;;;;5014686;28;20105;-81
2021/03/10 06:34:47;;;;;;;23.70;15.48;;;1.10;89.10;;;;;;5015036;28;20040;-81
2021/03/10 06:37:23;;;;;;;28.85;15.63;;;1.10;89.10;;;;;;5013169;28;20029;-83
2021/03/10 06:39:48;;;;;;;22.48;14.50;;;1.10;89.60;;;;;;5013886;28;20076;-83
2021/03/10 06:42:18;;;;;;;25.70;15.55;;;1.30;88.50;;;;;;5013612;28;20026;-81
2021/03/10 06:44:53;;;;;;;30.67;16.20;;;1.30;88.70;;;;;;5013613;28;20026;-80
2021/03/10 06:47:19;;;;;;;24.50;16.02;;;1.30;89.00;;;;;;5013429;28;20026;-84
2021/03/10 06:49:54;;;;;;;30.95;17.45;;;1.40;88.60;;;;;;5013167;28;20038;-82
2021/03/10 06:52:20;;;;;;;28.83;17.40;;;1.30;88.10;;;;;;5015126;28;20053;-83
2021/03/10 06:54:59;;;;;;;31.08;18.08;;;1.40;88.10;;;;;;5018364;28;20053;-82
2021/03/10 06:57:26;;;;;;;29.95;18.63;;;1.40;88.10;;;;;;5016503;28;20022;-80
2021/03/10 06:59:53;;;;;;;32.80;19.63;;;1.40;88.70;;;;;;5016776;28;20026;-81
2021/03/10 07:02:22;;;;;;;31.98;21.35;;;1.40;88.90;;;;;;5018169;28;20028;-80
2021/03/10 07:04:50;;;;;;;24.75;16.13;;;1.50;88.60;;;;;;5016800;28;20030;-83
2021/03/10 07:07:16;;;;;;;35.40;19.25;;;1.50;88.70;;;;;;5016362;28;20483;-83
2021/03/10 07:09:42;;;;;;;26.98;14.48;;;1.50;88.00;;;;;;5016177;28;20080;-85
2021/03/10 07:12:10;;;;;;;24.25;14.32;;;1.50;87.00;;;;;;5016626;28;20068;-83
2021/03/10 07:14:37;;;;;;;23.70;14.82;;;1.60;86.10;;;;;;5015722;28;20034;-80
2021/03/10 07:17:07;;;;;;;21.98;14.73;;;1.60;84.40;;;;;;5017291;28;20018;-82
2021/03/10 07:19:33;;;;;;;28.65;14.90;;;1.70;84.10;;;;;;5016035;28;20076;-81
2021/03/10 07:22:04;;;;;;;27.23;15.63;;;1.80;84.30;;;;;;5016440;28;20026;-82
2021/03/10 07:24:56;;;;;;;25.42;15.00;;;1.80;83.80;;;;;;5016310;28;20480;-82
2021/03/10 07:27:23;;;;;;;27.48;17.42;;;1.90;83.90;;;;;;5015939;28;20018;-82
2021/03/10 07:29:56;;;;;;;29.50;16.45;;;2.00;81.70;;;;;;5015836;28;20029;-82
2021/03/10 07:32:24;;;;;;;26.15;14.77;;;2.00;80.00;;;;;;5015885;28;20061;-82
2021/03/10 07:35:05;;;;;;;28.20;14.65;;;2.10;78.00;;;;;;5015308;28;20096;-80
2021/03/10 07:37:32;;;;;;;20.38;13.18;;;2.20;76.70;;;;;;5015501;28;20025;-83
2021/03/10 07:40:16;;;;;;;23.08;13.50;;;2.30;74.70;;;;;;5015851;28;20373;-82
2021/03/10 07:42:54;;;;;;;24.13;14.10;;;2.40;74.40;;;;;;5016670;28;20025;-79
2021/03/10 07:45:23;;;;;;;23.42;13.07;;;2.60;72.70;;;;;;5015625;28;20030;-81
2021/03/10 07:47:57;;;;;;;22.27;12.20;;;2.70;72.10;;;;;;5015562;28;20022;-81
2021/03/10 07:50:36;;;;;;;20.98;12.25;;;2.80;70.30;;;;;;5016803;28;20025;-81
2021/03/10 07:53:01;;;;;;;18.65;11.73;;;3.10;69.60;;;;;;5016574;28;20022;-78
2021/03/10 07:55:27;;;;;;;19.17;14.02;;;3.30;66.70;;;;;;5015407;28;20127;-81
2021/03/10 07:57:55;;;;;;;23.15;12.52;;;3.40;67.00;;;;;;5014637;28;20065;-82
2021/03/10 08:00:35;;;;;;;22.17;11.45;;;3.50;64.10;;;;;;5015253;28;20048;-78
2021/03/10 08:03:01;;;;;;;24.52;11.95;;;3.70;63.50;;;;;;5015319;28;20025;-81
2021/03/10 08:05:28;;;;;;;16.45;11.00;;;3.70;62.00;;;;;;5016270;28;20030;-81
2021/03/10 08:08:12;;;;;;;17.80;11.55;;;3.60;61.60;;;;;;5015513;28;20030;-84
2021/03/10 08:10:39;;;;;;;20.50;11.98;;;3.90;63.50;;;;;;5014826;28;20026;-84
2021/03/10 08:13:17;;;;;;;18.10;11.68;;;4.00;64.40;;;;;;5014039;28;20029;-80
2021/03/10 08:15:43;;;;;;;17.83;11.77;;;4.20;62.10;;;;;;5015659;28;20477;-81
2021/03/10 08:18:09;;;;;;;16.15;10.95;;;4.20;62.40;;;;;;5014225;28;20037;-82
2021/03/10 08:20:35;;;;;;;21.73;12.10;;;4.20;62.30;;;;;;5013870;28;20033;-82
2021/03/10 08:23:07;;;;;;;19.02;10.48;;;4.30;60.80;;;;;;5015466;28;20458;-82
2021/03/10 08:25:34;;;;;;;16.58;11.52;;;4.50;60.80;;;;;;5014971;28;20097;-81
2021/03/10 08:28:10;;;;;;;17.55;11.20;;;4.20;59.90;;;;;;5013634;28;20049;-81
2021/03/10 08:30:36;;;;;;;19.63;10.93;;;4.20;59.40;;;;;;5014015;28;20018;-81
2021/03/10 08:33:06;;;;;;;20.13;10.85;;;4.20;58.70;;;;;;5016827;28;20030;-85
2021/03/10 08:35:32;;;;;;;16.30;10.98;;;4.40;60.00;;;;;;5019189;28;20101;-85
2021/03/10 08:38:02;;;;;;;16.35;10.77;;;4.40;59.90;;;;;;5016223;28;20053;-85
2021/03/10 08:40:29;;;;;;;20.48;12.77;;;4.80;59.20;;;;;;5013895;28;20032;-81
2021/03/10 08:42:57;;;;;;;15.80;10.88;;;4.40;59.00;;;;;;5015133;28;20033;-82
2021/03/10 08:45:28;;;;;;;19.23;11.65;;;4.50;58.60;;;;;;5014355;28;20037;-83
2021/03/10 08:48:12;;;;;;;16.50;10.45;;;4.60;57.20;;;;;;5014810;28;20022;-82
2021/03/10 08:50:45;;;;;;;17.48;12.15;;;4.40;57.10;;;;;;5014661;28;20060;-85
2021/03/10 08:53:14;;;;;;;16.40;11.18;;;4.40;58.90;;;;;;5015862;28;20084;-85
2021/03/10 08:55:43;;;;;;;17.25;12.52;;;4.60;59.50;;;;;;5027065;28;20520;-85
2021/03/10 08:58:14;;;;;;;16.08;11.43;;;5.00;60.70;;;;;;5013779;28;20172;-83
2021/03/10 09:00:41;;;;;;;21.88;12.50;;;5.30;59.80;;;;;;5013391;28;20500;-83
2021/03/10 09:03:19;;;;;;;18.33;10.90;;;5.50;56.60;;;;;;5012088;28;20066;-79
2021/03/10 09:05:46;;;;;;;17.80;12.43;;;5.90;56.10;;;;;;5011654;28;20022;-79
2021/03/10 09:08:14;;;;;;;18.50;11.18;;;6.10;55.20;;;;;;5012158;28;20084;-80
2021/03/10 09:10:47;;;;;;;18.02;11.52;;;6.20;52.80;;;;;;5013017;28;20470;-80
2021/03/10 09:13:12;;;;;;;17.38;11.25;;;6.10;54.00;;;;;;5012089;28;20030;-79
2021/03/10 09:15:39;;;;;;;19.00;12.63;;;5.90;53.50;;;;;;5014775;28;20044;-82
2021/03/10 09:18:08;;;;;;;18.10;12.55;;;6.10;56.10;;;;;;5013637;28;20026;-81
2021/03/10 09:20:37;;;;;;;16.70;11.52;;;5.90;54.60;;;;;;5013002;28;20036;-79
2021/03/10 09:23:03;;;;;;;18.38;12.00;;;6.00;56.70;;;;;;5014486;28;20452;-83
2021/03/10 09:25:30;;;;;;;17.52;11.98;;;5.80;54.90;;;;;;5013304;28;20056;-81
2021/03/10 09:28:35;;;;;;;16.70;11.45;;;5.90;55.60;;;;;;5014801;28;20418;-80
2021/03/10 09:31:12;;;;;;;20.67;14.00;;;6.00;55.40;;;;;;5004489;28;20034;-79
2021/03/10 09:33:40;;;;;;;16.67;11.27;;;6.20;55.80;;;;;;5013414;28;20029;-79
2021/03/10 09:36:06;;;;;;;22.73;12.25;;;6.30;53.20;;;;;;5012883;28;20021;-84
2021/03/10 09:38:34;;;;;;;18.77;12.25;;;6.40;54.70;;;;;;5013149;28;20030;-82
2021/03/10 09:41:02;;;;;;;16.00;11.35;;;6.50;53.20;;;;;;5014521;28;20018;-81
2021/03/10 09:43:30;;;;;;;17.35;12.75;;;6.60;52.90;;;;;;5012928;28;20495;-79
2021/03/10 09:46:01;;;;;;;17.55;11.98;;;6.70;53.80;;;;;;5012999;28;20030;-84
2021/03/10 09:48:39;;;;;;;24.58;13.23;;;6.60;54.20;;;;;;5013527;28;20022;-82
2021/03/10 09:51:10;;;;;;;15.93;11.93;;;6.70;54.00;;;;;;5013539;28;20462;-84
2021/03/10 09:53:50;;;;;;;18.80;12.35;;;6.30;52.20;;;;;;5013130;28;20061;-80
2021/03/10 09:56:20;;;;;;;17.48;12.20;;;6.20;54.70;;;;;;5012786;28;20095;-84
2021/03/10 09:58:49;;;;;;;16.08;11.60;;;6.40;54.80;;;;;;5014790;28;20034;-83
2021/03/10 10:01:15;;;;;;;18.20;11.50;;;6.50;54.50;;;;;;5014151;28;20039;-82
2021/03/10 10:03:41;;;;;;;16.60;11.77;;;6.80;54.30;;;;;;5014443;28;20041;-85
2021/03/10 10:06:08;;;;;;;20.13;12.75;;;6.60;54.00;;;;;;5013936;28;20041;-83
2021/03/10 10:08:35;;;;;;;16.63;12.45;;;6.90;55.10;;;;;;5013563;28;20037;-83
2021/03/10 10:11:08;;;;;;;18.73;13.23;;;7.10;53.10;;;;;;5014050;28;20065;-83
2021/03/10 10:13:33;;;;;;;17.05;12.75;;;7.30;51.90;;;;;;5013718;28;20030;-82
2021/03/10 10:15:59;;;;;;;16.50;12.10;;;7.50;53.00;;;;;;5013838;28;20432;-84
2021/03/10 10:18:25;;;;;;;19.77;11.32;;;7.60;50.50;;;;;;5014725;28;20025;-86
2021/03/10 10:20:51;;;;;;;16.58;12.02;;;7.30;51.50;;;;;;5014717;28;20052;-82
2021/03/10 10:23:17;;;;;;;14.35;10.98;;;7.10;51.20;;;;;;5014476;28;20030;-86
2021/03/10 10:25:42;;;;;;;17.27;11.23;;;7.00;50.60;;;;;;5014039;28;20026;-82
2021/03/10 10:28:09;;;;;;;18.08;11.60;;;6.80;51.40;;;;;;5017111;28;20543;-85
2021/03/10 10:30:34;;;;;;;16.42;11.18;;;6.80;52.50;;;;;;5018565;28;20022;-86
2021/03/10 10:33:00;;;;;;;22.85;13.45;;;6.80;53.80;;;;;;5017506;28;20033;-86
2021/03/10 10:35:26;;;;;;;21.63;12.27;;;7.10;54.30;;;;;;5017122;28;20037;-85
2021/03/10 10:37:52;;;;;;;17.48;12.55;;;7.20;52.80;;;;;;5017031;28;20380;-85
2021/03/10 10:40:20;;;;;;;16.20;11.93;;;7.20;52.20;;;;;;5017238;28;20026;-86
2021/03/10 10:42:47;;;;;;;17.58;12.10;;;7.50;52.30;;;;;;5015948;28;20057;-81
2021/03/10 10:45:13;;;;;;;18.13;12.00;;;7.60;50.00;;;;;;5015767;28;20479;-81
2021/03/10 10:47:39;;;;;;;19.23;12.55;;;7.90;50.70;;;;;;5015811;28;20025;-82
2021/03/10 10:50:06;;;;;;;18.77;12.77;;;8.00;51.30;;;;;;5016103;28;20022;-83
2021/03/10 10:52:36;;;;;;;16.15;11.85;;;8.10;50.20;;;;;;5017577;28;20092;-81
2021/03/10 10:55:05;;;;;;;17.50;12.65;;;8.00;49.40;;;;;;5015544;28;20085;-82
2021/03/10 10:57:31;;;;;;;17.42;12.88;;;7.60;49.90;;;;;;5015683;28;20520;-81
2021/03/10 10:59:56;;;;;;;15.95;11.70;;;7.40;50.20;;;;;;5015479;28;20038;-81
2021/03/10 11:02:22;;;;;;;16.67;11.75;;;7.30;50.80;;;;;;5017235;28;20025;-80
2021/03/10 11:04:48;;;;;;;15.75;11.70;;;7.30;50.70;;;;;;5015753;28;20049;-80
2021/03/10 11:07:14;;;;;;;19.27;12.35;;;7.10;50.60;;;;;;5015399;28;20067;-81
2021/03/10 11:09:40;;;;;;;18.23;12.23;;;7.10;52.20;;;;;;5016313;28;20381;-79
2021/03/10 11:12:11;;;;;;;17.17;12.43;;;7.10;52.00;;;;;;5016966;28;20030;-81
2021/03/10 11:14:40;;;;;;;17.83;12.02;;;7.20;52.20;;;;;;5015548;28;20038;-81
2021/03/10 11:17:07;;;;;;;17.63;11.98;;;7.30;54.20;;;;;;5014973;28;20026;-79
2021/03/10 11:19:33;;;;;;;16.60;11.98;;;7.40;52.40;;;;;;5015328;28;20018;-83
2021/03/10 11:21:59;;;;;;;19.75;11.48;;;7.50;54.10;;;;;;5013993;28;20026;-81
2021/03/10 11:24:25;;;;;;;18.25;12.95;;;7.60;56.50;;;;;;5014699;28;20380;-79
2021/03/10 11:26:50;;;;;;;20.00;12.27;;;7.60;54.80;;;;;;5014099;28;20022;-79
2021/03/10 11:29:16;;;;;;;17.55;13.25;;;7.60;52.80;;;;;;5014680;28;20511;-81
2021/03/10 11:31:43;;;;;;;17.73;11.98;;;7.80;54.00;;;;;;5015778;28;20020;-80
2021/03/10 11:34:09;;;;;;;40.53;25.38;;;7.70;52.60;;;;;;5014659;28;20465;-84
2021/03/10 11:36:35;;;;;;;21.73;13.63;;;7.60;53.40;;;;;;5014655;28;20029;-81
2021/03/10 11:39:00;;;;;;;20.60;13.50;;;7.40;53.60;;;;;;5014142;28;20026;-80
2021/03/10 11:41:26;;;;;;;18.88;11.73;;;7.40;53.80;;;;;;5014309;28;20517;-79
2021/03/10 11:43:52;;;;;;;15.30;11.30;;;7.30;54.30;;;;;;5014097;28;20034;-82
2021/03/10 11:46:17;;;;;;;20.95;13.30;;;7.20;55.90;;;;;;5013937;28;20029;-80
2021/03/10 11:48:43;;;;;;;16.80;11.80;;;7.00;55.80;;;;;;5014051;28;20087;-80
2021/03/10 11:51:09;;;;;;;19.52;13.40;;;7.00;56.20;;;;;;5015051;28;20497;-81
2021/03/10 11:53:34;;;;;;;24.17;12.38;;;6.90;56.30;;;;;;5013923;28;20030;-81
2021/03/10 11:56:00;;;;;;;18.13;12.73;;;7.00;56.50;;;;;;5013847;28;20046;-80
2021/03/10 11:58:27;;;;;;;17.10;12.27;;;7.00;61.00;;;;;;5013891;28;20350;-80
2021/03/10 12:00:56;;;;;;;21.27;13.68;;;7.10;57.60;;;;;;5013798;28;20424;-80
2021/03/10 12:03:22;;;;;;;19.95;12.77;;;7.10;58.50;;;;;;5014336;28;20045;-81
2021/03/10 12:05:47;;;;;;;20.30;12.98;;;7.20;59.70;;;;;;5013899;28;20469;-81
2021/03/10 12:08:13;;;;;;;18.15;12.52;;;6.90;58.40;;;;;;5014018;28;20029;-80
2021/03/10 12:10:41;;;;;;;17.23;12.25;;;7.10;57.60;;;;;;5013388;28;20018;-80
2021/03/10 12:13:08;;;;;;;17.38;12.85;;;7.00;58.70;;;;;;5014086;28;20543;-79
2021/03/10 12:15:35;;;;;;;19.42;12.52;;;6.90;59.40;;;;;;5014105;28;20510;-80
2021/03/10 12:18:00;;;;;;;18.92;12.95;;;6.90;58.70;;;;;;5013798;28;20048;-80
2021/03/10 12:20:26;;;;;;;19.90;12.93;;;7.00;59.40;;;;;;5014005;28;20026;-80
2021/03/10 12:22:52;;;;;;;18.08;13.02;;;7.20;60.00;;;;;;5013694;28;20034;-80
2021/03/10 12:25:17;;;;;;;22.83;13.85;;;6.90;58.10;;;;;;5013578;28;20030;-80
2021/03/10 12:27:43;;;;;;;15.75;12.18;;;7.00;60.00;;;;;;5013538;28;20101;-80
2021/03/10 12:30:10;;;;;;;18.85;12.55;;;7.00;59.40;;;;;;5013582;28;20033;-81
2021/03/10 12:32:36;;;;;;;16.42;12.10;;;6.80;59.90;;;;;;5013270;28;20057;-80
2021/03/10 12:35:04;;;;;;;24.05;13.60;;;6.90;59.10;;;;;;5013070;28;20499;-82
2021/03/10 12:37:31;;;;;;;16.08;12.43;;;7.10;59.40;;;;;;5013153;28;20551;-80
2021/03/10 12:39:56;;;;;;;19.70;12.82;;;7.10;59.10;;;;;;5012808;28;20076;-79